sensor_id;sensor_type;location;lat;lon;timestamp;pressure;altitude;pressure_sealevel;temperature;humidity
30636;BME280;17400;52.392;9.750;2023-01-19T00:01:28;99395.56;;;1.78;100.00
30636;BME280;17400;52.392;9.750;2023-01-19T00:03:55;99402.09;;;1.84;100.00
30636;BME280;17400;52.392;9.750;2023-01-19T00:06:24;99395.41;;;1.88;100.00
30636;BME280;17400;52.392;9.750;2023-01-19T00:08:53;99394.06;;;1.84;100.00
30636;BME280;17400;52.392;9.750;2023-01-19T00:11:21;99397.53;;;1.93;100.00
30636;BME280;17400;52.392;9.750;2023-01-19T00:13:48;99398.25;;;1.87;100.00
30636;BME280;17400;52.392;9.750;2023-01-19T00:16:19;99392.06;;;1.86;100.00
30636;BME280;17400;52.392;9.750;2023-01-19T00:18:50;99389.19;;;1.88;100.00
30636;BME280;17400;52.392;9.750;2023-01-19T00:21:18;99384.00;;;1.94;100.00
30636;BME280;17400;52.392;9.750;2023-01-19T00:23:48;99385.69;;;1.95;100.00
30636;BME280;17400;52.392;9.750;2023-01-19T00:26:19;99390.38;;;1.85;100.00
30636;BME280;17400;52.392;9.750;2023-01-19T00:28:48;99379.84;;;1.92;100.00
30636;BME280;17400;52.392;9.750;2023-01-19T00:31:16;99387.69;;;1.93;100.00
30636;BME280;17400;52.392;9.750;2023-01-19T00:33:46;99392.91;;;1.87;100.00
30636;BME280;17400;52.392;9.750;2023-01-19T00:36:14;99401.22;;;1.83;100.00
30636;BME280;17400;52.392;9.750;2023-01-19T00:38:42;99403.72;;;1.93;100.00
30636;BME280;17400;52.392;9.750;2023-01-19T00:41:12;99397.06;;;1.89;100.00
30636;BME280;17400;52.392;9.750;2023-01-19T00:43:42;99403.03;;;1.91;100.00
30636;BME280;17400;52.392;9.750;2023-01-19T00:46:09;99403.72;;;1.93;100.00
30636;BME280;17400;52.392;9.750;2023-01-19T00:48:36;99404.72;;;1.92;100.00
30636;BME280;17400;52.392;9.750;2023-01-19T00:51:04;99405.72;;;1.91;100.00
30636;BME280;17400;52.392;9.750;2023-01-19T00:53:32;99410.53;;;1.96;100.00
30636;BME280;17400;52.392;9.750;2023-01-19T00:56:00;99408.34;;;1.99;100.00
30636;BME280;17400;52.392;9.750;2023-01-19T00:58:28;99406.44;;;1.77;100.00
30636;BME280;17400;52.392;9.750;2023-01-19T01:00:58;99417.94;;;1.69;100.00
30636;BME280;17400;52.392;9.750;2023-01-19T01:03:29;99408.47;;;1.66;100.00
30636;BME280;17400;52.392;9.750;2023-01-19T01:05:59;99407.00;;;1.56;100.00
30636;BME280;17400;52.392;9.750;2023-01-19T01:08:29;99410.97;;;1.60;100.00
30636;BME280;17400;52.392;9.750;2023-01-19T01:10:57;99409.47;;;1.65;100.00
30636;BME280;17400;52.392;9.750;2023-01-19T01:13:25;99407.66;;;1.58;100.00
30636;BME280;17400;52.392;9.750;2023-01-19T01:15:56;99408.00;;;1.55;100.00
30636;BME280;17400;52.392;9.750;2023-01-19T01:18:25;99413.66;;;1.52;100.00
30636;BME280;17400;52.392;9.750;2023-01-19T01:20:59;99408.00;;;1.55;100.00
30636;BME280;17400;52.392;9.750;2023-01-19T01:23:27;99414.66;;;1.50;100.00
30636;BME280;17400;52.392;9.750;2023-01-19T01:25:55;99411.69;;;1.54;100.00
30636;BME280;17400;52.392;9.750;2023-01-19T01:28:24;99411.00;;;1.52;100.00
30636;BME280;17400;52.392;9.750;2023-01-19T01:30:52;99418.00;;;1.53;100.00
30636;BME280;17400;52.392;9.750;2023-01-19T01:33:20;99415.34;;;1.53;100.00
30636;BME280;17400;52.392;9.750;2023-01-19T01:36:08;99411.22;;;1.42;100.00
30636;BME280;17400;52.392;9.750;2023-01-19T01:38:37;99419.34;;;1.40;100.00
30636;BME280;17400;52.392;9.750;2023-01-19T01:41:05;99418.19;;;1.43;100.00
30636;BME280;17400;52.392;9.750;2023-01-19T01:43:43;99406.88;;;1.41;100.00
30636;BME280;17400;52.392;9.750;2023-01-19T01:46:13;99411.22;;;1.42;100.00
30636;BME280;17400;52.392;9.750;2023-01-19T01:48:47;99411.69;;;1.54;100.00
30636;BME280;17400;52.392;9.750;2023-01-19T01:51:21;99400.50;;;1.50;100.00
30636;BME280;17400;52.392;9.750;2023-01-19T01:53:59;99392.00;;;1.46;100.00
30636;BME280;17400;52.392;9.750;2023-01-19T01:56:34;99390.50;;;1.52;100.00
30636;BME280;17400;52.392;9.750;2023-01-19T01:59:04;99386.66;;;1.55;100.00
30636;BME280;17400;52.392;9.750;2023-01-19T02:01:33;99399.97;;;1.63;100.00
30636;BME280;17400;52.392;9.750;2023-01-19T02:04:19;99388.28;;;1.64;100.00
30636;BME280;17400;52.392;9.750;2023-01-19T02:06:49;99385.84;;;1.54;100.00
30636;BME280;17400;52.392;9.750;2023-01-19T02:09:36;99391.66;;;1.49;100.00
30636;BME280;17400;52.392;9.750;2023-01-19T02:12:22;99387.03;;;1.43;100.00
30636;BME280;17400;52.392;9.750;2023-01-19T02:15:16;99390.34;;;1.45;100.00
30636;BME280;17400;52.392;9.750;2023-01-19T02:17:46;99396.00;;;1.59;100.00
30636;BME280;17400;52.392;9.750;2023-01-19T02:20:15;99404.66;;;1.61;100.00
30636;BME280;17400;52.392;9.750;2023-01-19T02:22:47;99398.31;;;1.62;100.00
30636;BME280;17400;52.392;9.750;2023-01-19T02:25:17;99404.28;;;1.64;100.00
30636;BME280;17400;52.392;9.750;2023-01-19T02:27:46;99403.00;;;1.52;100.00
30636;BME280;17400;52.392;9.750;2023-01-19T02:30:15;99402.50;;;1.48;100.00
30636;BME280;17400;52.392;9.750;2023-01-19T02:32:44;99398.34;;;1.54;100.00
30636;BME280;17400;52.392;9.750;2023-01-19T02:35:12;99397.31;;;1.55;100.00
30636;BME280;17400;52.392;9.750;2023-01-19T02:37:41;99392.97;;;1.62;100.00
30636;BME280;17400;52.392;9.750;2023-01-19T02:40:11;99398.34;;;1.54;100.00
30636;BME280;17400;52.392;9.750;2023-01-19T02:42:43;99410.19;;;1.51;100.00
30636;BME280;17400;52.392;9.750;2023-01-19T02:45:13;99405.66;;;1.52;100.00
30636;BME280;17400;52.392;9.750;2023-01-19T02:47:45;99410.19;;;1.51;100.00
30636;BME280;17400;52.392;9.750;2023-01-19T02:50:37;99408.00;;;1.46;100.00
30636;BME280;17400;52.392;9.750;2023-01-19T02:53:29;99395.88;;;1.36;100.00
30636;BME280;17400;52.392;9.750;2023-01-19T02:56:08;99393.38;;;1.34;100.00
30636;BME280;17400;52.392;9.750;2023-01-19T02:58:49;99408.38;;;1.43;100.00
30636;BME280;17400;52.392;9.750;2023-01-19T03:01:30;99407.88;;;1.40;100.00
30636;BME280;17400;52.392;9.750;2023-01-19T03:04:08;99401.03;;;1.37;100.00
30636;BME280;17400;52.392;9.750;2023-01-19T03:06:43;99410.03;;;1.44;100.00
30636;BME280;17400;52.392;9.750;2023-01-19T03:09:20;99399.34;;;1.53;100.00
30636;BME280;17400;52.392;9.750;2023-01-19T03:11:54;99402.97;;;1.60;100.00
30636;BME280;17400;52.392;9.750;2023-01-19T03:14:31;99401.66;;;1.56;100.00
30636;BME280;17400;52.392;9.750;2023-01-19T03:17:02;99399.38;;;1.44;100.00
30636;BME280;17400;52.392;9.750;2023-01-19T03:19:34;99392.84;;;1.39;100.00
30636;BME280;17400;52.392;9.750;2023-01-19T03:22:06;99397.53;;;1.45;100.00
30636;BME280;17400;52.392;9.750;2023-01-19T03:24:39;99394.34;;;1.41;100.00
30636;BME280;17400;52.392;9.750;2023-01-19T03:27:12;99398.69;;;1.42;100.00
30636;BME280;17400;52.392;9.750;2023-01-19T03:29:47;99396.84;;;1.43;100.00
30636;BME280;17400;52.392;9.750;2023-01-19T03:32:21;99401.84;;;1.46;100.00
30636;BME280;17400;52.392;9.750;2023-01-19T03:34:50;99401.84;;;1.46;100.00
30636;BME280;17400;52.392;9.750;2023-01-19T03:37:20;99401.16;;;1.52;100.00
30636;BME280;17400;52.392;9.750;2023-01-19T03:39:49;99390.66;;;1.59;100.00
30636;BME280;17400;52.392;9.750;2023-01-19T03:42:17;99397.63;;;1.60;100.00
30636;BME280;17400;52.392;9.750;2023-01-19T03:44:47;99401.16;;;1.52;100.00
30636;BME280;17400;52.392;9.750;2023-01-19T03:47:16;99395.34;;;1.48;100.00
30636;BME280;17400;52.392;9.750;2023-01-19T03:49:46;99393.66;;;1.56;100.00
30636;BME280;17400;52.392;9.750;2023-01-19T03:52:16;99397.00;;;1.49;100.00
30636;BME280;17400;52.392;9.750;2023-01-19T03:54:44;99386.50;;;1.48;100.00
30636;BME280;17400;52.392;9.750;2023-01-19T03:57:12;99398.66;;;1.50;100.00
30636;BME280;17400;52.392;9.750;2023-01-19T03:59:39;99389.69;;;1.43;100.00
30636;BME280;17400;52.392;9.750;2023-01-19T04:02:11;99390.66;;;1.50;100.00
30636;BME280;17400;52.392;9.750;2023-01-19T04:04:40;99399.66;;;1.58;100.00
30636;BME280;17400;52.392;9.750;2023-01-19T04:07:08;99406.66;;;1.59;100.00
30636;BME280;17400;52.392;9.750;2023-01-19T04:09:36;99394.31;;;1.58;100.00
30636;BME280;17400;52.392;9.750;2023-01-19T04:12:04;99387.00;;;1.52;100.00
30636;BME280;17400;52.392;9.750;2023-01-19T04:14:32;99391.97;;;1.55;100.00
30636;BME280;17400;52.392;9.750;2023-01-19T04:16:59;99388.31;;;1.56;100.00
30636;BME280;17400;52.392;9.750;2023-01-19T04:19:29;99385.84;;;1.54;100.00
30636;BME280;17400;52.392;9.750;2023-01-19T04:21:56;99378.50;;;1.56;100.00
30636;BME280;17400;52.392;9.750;2023-01-19T04:24:25;99389.00;;;1.58;100.00
30636;BME280;17400;52.392;9.750;2023-01-19T04:26:53;99388.81;;;1.59;100.00
30636;BME280;17400;52.392;9.750;2023-01-19T04:29:20;99393.47;;;1.65;100.00
30636;BME280;17400;52.392;9.750;2023-01-19T04:31:49;99392.31;;;1.68;100.00
30636;BME280;17400;52.392;9.750;2023-01-19T04:34:17;99380.78;;;1.67;100.00
30636;BME280;17400;52.392;9.750;2023-01-19T04:36:46;99374.81;;;1.65;100.00
30636;BME280;17400;52.392;9.750;2023-01-19T04:39:16;99380.63;;;1.61;100.00
30636;BME280;17400;52.392;9.750;2023-01-19T04:41:46;99364.13;;;1.57;100.00
30636;BME280;17400;52.392;9.750;2023-01-19T04:44:14;99364.66;;;1.53;100.00
30636;BME280;17400;52.392;9.750;2023-01-19T04:46:41;99357.31;;;1.55;100.00
30636;BME280;17400;52.392;9.750;2023-01-19T04:49:09;99355.00;;;1.52;100.00
30636;BME280;17400;52.392;9.750;2023-01-19T04:51:37;99353.47;;;1.57;100.00
30636;BME280;17400;52.392;9.750;2023-01-19T04:54:06;99356.63;;;1.61;100.00
30636;BME280;17400;52.392;9.750;2023-01-19T04:56:36;99353.59;;;1.64;100.00
30636;BME280;17400;52.392;9.750;2023-01-19T04:59:06;99350.94;;;1.64;100.00
30636;BME280;17400;52.392;9.750;2023-01-19T05:01:33;99353.97;;;1.61;100.00
30636;BME280;17400;52.392;9.750;2023-01-19T05:04:02;99370.47;;;1.64;100.00
30636;BME280;17400;52.392;9.750;2023-01-19T05:06:32;99355.94;;;1.67;100.00
30636;BME280;17400;52.392;9.750;2023-01-19T05:09:00;99357.25;;;1.71;100.00
30636;BME280;17400;52.392;9.750;2023-01-19T05:11:29;99355.59;;;1.70;100.00
30636;BME280;17400;52.392;9.750;2023-01-19T05:13:57;99363.41;;;1.72;100.00
30636;BME280;17400;52.392;9.750;2023-01-19T05:16:25;99366.25;;;1.70;100.00
30636;BME280;17400;52.392;9.750;2023-01-19T05:18:53;99364.59;;;1.69;100.00
30636;BME280;17400;52.392;9.750;2023-01-19T05:21:20;99371.25;;;1.73;100.00
30636;BME280;17400;52.392;9.750;2023-01-19T05:23:48;99370.91;;;1.76;100.00
30636;BME280;17400;52.392;9.750;2023-01-19T05:26:16;99372.59;;;1.77;100.00
30636;BME280;17400;52.392;9.750;2023-01-19T05:28:45;99373.06;;;1.81;100.00
30636;BME280;17400;52.392;9.750;2023-01-19T05:31:13;99374.41;;;1.77;100.00
30636;BME280;17400;52.392;9.750;2023-01-19T05:33:42;99378.88;;;1.85;100.00
30636;BME280;17400;52.392;9.750;2023-01-19T05:36:11;99384.72;;;1.88;100.00
30636;BME280;17400;52.392;9.750;2023-01-19T05:38:38;99389.88;;;1.90;100.00
30636;BME280;17400;52.392;9.750;2023-01-19T05:41:06;99387.56;;;1.87;100.00
30636;BME280;17400;52.392;9.750;2023-01-19T05:43:34;99391.72;;;1.89;100.00
30636;BME280;17400;52.392;9.750;2023-01-19T05:46:03;99394.84;;;1.93;100.00
30636;BME280;17400;52.392;9.750;2023-01-19T05:48:31;99390.16;;;2.03;100.00
30636;BME280;17400;52.392;9.750;2023-01-19T05:50:59;99392.00;;;2.03;100.00
30636;BME280;17400;52.392;9.750;2023-01-19T05:53:27;99396.97;;;2.06;100.00
30636;BME280;17400;52.392;9.750;2023-01-19T05:55:58;99392.13;;;2.09;100.00
30636;BME280;17400;52.392;9.750;2023-01-19T05:58:26;99392.09;;;2.17;100.00
30636;BME280;17400;52.392;9.750;2023-01-19T06:00:54;99390.22;;;2.18;100.00
30636;BME280;17400;52.392;9.750;2023-01-19T06:03:24;99395.75;;;2.16;100.00
30636;BME280;17400;52.392;9.750;2023-01-19T06:05:51;99400.78;;;2.11;100.00
30636;BME280;17400;52.392;9.750;2023-01-19T06:08:19;99399.59;;;2.14;100.00
30636;BME280;17400;52.392;9.750;2023-01-19T06:10:47;99398.91;;;2.20;100.00
30636;BME280;17400;52.392;9.750;2023-01-19T06:13:15;99401.03;;;2.25;100.00
30636;BME280;17400;52.392;9.750;2023-01-19T06:15:43;99411.69;;;2.33;100.00
30636;BME280;17400;52.392;9.750;2023-01-19T06:18:12;99405.31;;;2.34;100.00
30636;BME280;17400;52.392;9.750;2023-01-19T06:20:42;99405.00;;;2.37;100.00
30636;BME280;17400;52.392;9.750;2023-01-19T06:23:10;99413.13;;;2.44;100.00
30636;BME280;17400;52.392;9.750;2023-01-19T06:25:37;99419.25;;;2.53;100.00
30636;BME280;17400;52.392;9.750;2023-01-19T06:28:05;99409.72;;;2.50;100.00
30636;BME280;17400;52.392;9.750;2023-01-19T06:30:33;99408.91;;;2.49;100.00
30636;BME280;17400;52.392;9.750;2023-01-19T06:33:00;99410.16;;;2.39;100.00
30636;BME280;17400;52.392;9.750;2023-01-19T06:35:28;99415.00;;;2.35;100.00
30636;BME280;17400;52.392;9.750;2023-01-19T06:37:57;99412.81;;;2.39;100.00
30636;BME280;17400;52.392;9.750;2023-01-19T06:40:25;99414.13;;;2.43;100.00
30636;BME280;17400;52.392;9.750;2023-01-19T06:42:52;99418.78;;;2.49;100.00
30636;BME280;17400;52.392;9.750;2023-01-19T06:45:21;99418.59;;;2.50;100.00
30636;BME280;17400;52.392;9.750;2023-01-19T06:47:49;99417.00;;;2.41;100.00
30636;BME280;17400;52.392;9.750;2023-01-19T06:50:17;99426.50;;;2.44;100.00
30636;BME280;17400;52.392;9.750;2023-01-19T06:52:44;99428.31;;;2.43;100.00
30636;BME280;17400;52.392;9.750;2023-01-19T06:55:14;99426.97;;;2.47;100.00
30636;BME280;17400;52.392;9.750;2023-01-19T06:57:42;99430.41;;;2.56;100.00
30636;BME280;17400;52.392;9.750;2023-01-19T07:00:11;99433.75;;;2.58;100.00
30636;BME280;17400;52.392;9.750;2023-01-19T07:02:40;99433.25;;;2.55;100.00
30636;BME280;17400;52.392;9.750;2023-01-19T07:05:09;99437.53;;;2.64;100.00
30636;BME280;17400;52.392;9.750;2023-01-19T07:07:40;99436.72;;;2.63;100.00
30636;BME280;17400;52.392;9.750;2023-01-19T07:10:10;99444.19;;;2.68;100.00
30636;BME280;17400;52.392;9.750;2023-01-19T07:12:39;99446.16;;;2.74;100.00
30636;BME280;17400;52.392;9.750;2023-01-19T07:15:09;99445.50;;;2.72;100.00
30636;BME280;17400;52.392;9.750;2023-01-19T07:17:37;99443.50;;;2.74;100.00
30636;BME280;17400;52.392;9.750;2023-01-19T07:20:07;99452.16;;;2.76;100.00
30636;BME280;17400;52.392;9.750;2023-01-19T07:22:35;99452.47;;;2.81;100.00
30636;BME280;17400;52.392;9.750;2023-01-19T07:25:03;99455.50;;;2.78;100.00
30636;BME280;17400;52.392;9.750;2023-01-19T07:27:31;99454.78;;;2.85;100.00
30636;BME280;17400;52.392;9.750;2023-01-19T07:30:00;99465.13;;;2.88;100.00
30636;BME280;17400;52.392;9.750;2023-01-19T07:32:29;99468.91;;;2.93;100.00
30636;BME280;17400;52.392;9.750;2023-01-19T07:34:57;99471.78;;;2.92;100.00
30636;BME280;17400;52.392;9.750;2023-01-19T07:37:25;99474.13;;;2.87;100.00
30636;BME280;17400;52.392;9.750;2023-01-19T07:39:52;99474.81;;;2.89;100.00
30636;BME280;17400;52.392;9.750;2023-01-19T07:42:21;99471.47;;;2.87;100.00
30636;BME280;17400;52.392;9.750;2023-01-19T07:44:49;99475.63;;;2.89;100.00
30636;BME280;17400;52.392;9.750;2023-01-19T07:47:18;99472.84;;;2.82;100.00
30636;BME280;17400;52.392;9.750;2023-01-19T07:49:46;99478.47;;;2.88;100.00
30636;BME280;17400;52.392;9.750;2023-01-19T07:52:13;99472.59;;;2.92;100.00
30636;BME280;17400;52.392;9.750;2023-01-19T07:54:41;99478.41;;;2.96;100.00
30636;BME280;17400;52.392;9.750;2023-01-19T07:57:10;99487.63;;;2.93;100.00
30636;BME280;17400;52.392;9.750;2023-01-19T07:59:37;99484.13;;;2.93;100.00
30636;BME280;17400;52.392;9.750;2023-01-19T08:02:08;99494.66;;;2.94;100.00
30636;BME280;17400;52.392;9.750;2023-01-19T08:04:38;99490.13;;;2.95;100.00
30636;BME280;17400;52.392;9.750;2023-01-19T08:07:05;99492.78;;;2.95;100.00
30636;BME280;17400;52.392;9.750;2023-01-19T08:09:33;99490.78;;;2.97;100.00
30636;BME280;17400;52.392;9.750;2023-01-19T08:12:02;99494.94;;;2.99;100.00
30636;BME280;17400;52.392;9.750;2023-01-19T08:14:30;99494.09;;;2.99;100.00
30636;BME280;17400;52.392;9.750;2023-01-19T08:16:58;99498.94;;;3.04;100.00
30636;BME280;17400;52.392;9.750;2023-01-19T08:19:26;99496.66;;;2.92;100.00
30636;BME280;17400;52.392;9.750;2023-01-19T08:21:55;99490.88;;;2.80;100.00
30636;BME280;17400;52.392;9.750;2023-01-19T08:24:24;99501.81;;;2.71;100.00
30636;BME280;17400;52.392;9.750;2023-01-19T08:26:57;99489.44;;;2.70;100.00
30636;BME280;17400;52.392;9.750;2023-01-19T08:29:26;99493.59;;;2.72;100.00
30636;BME280;17400;52.392;9.750;2023-01-19T08:31:56;99490.28;;;2.70;100.00
30636;BME280;17400;52.392;9.750;2023-01-19T08:34:25;99487.66;;;2.62;100.00
30636;BME280;17400;52.392;9.750;2023-01-19T08:36:54;99503.97;;;2.67;100.00
30636;BME280;17400;52.392;9.750;2023-01-19T08:39:22;99494.97;;;2.68;100.00
30636;BME280;17400;52.392;9.750;2023-01-19T08:41:50;99497.00;;;2.66;100.00
30636;BME280;17400;52.392;9.750;2023-01-19T08:44:18;99500.00;;;2.63;100.00
30636;BME280;17400;52.392;9.750;2023-01-19T08:46:45;99498.13;;;2.72;100.00
30636;BME280;17400;52.392;9.750;2023-01-19T08:49:13;99498.56;;;2.83;100.00
30636;BME280;17400;52.392;9.750;2023-01-19T08:51:41;99518.56;;;2.88;100.00
30636;BME280;17400;52.392;9.750;2023-01-19T08:54:13;99516.78;;;2.80;100.00
30636;BME280;17400;52.392;9.750;2023-01-19T08:56:45;99521.63;;;2.76;100.00
30636;BME280;17400;52.392;9.750;2023-01-19T08:59:13;99511.97;;;2.75;100.00
30636;BME280;17400;52.392;9.750;2023-01-19T09:01:40;99522.63;;;2.83;100.00
30636;BME280;17400;52.392;9.750;2023-01-19T09:04:08;99521.78;;;2.83;100.00
30636;BME280;17400;52.392;9.750;2023-01-19T09:06:36;99525.59;;;2.89;100.00
30636;BME280;17400;52.392;9.750;2023-01-19T09:09:03;99532.00;;;2.79;100.00
30636;BME280;17400;52.392;9.750;2023-01-19T09:11:32;99534.69;;;2.71;100.00
30636;BME280;17400;52.392;9.750;2023-01-19T09:14:01;99528.16;;;2.74;100.00
30636;BME280;17400;52.392;9.750;2023-01-19T09:16:29;99537.84;;;2.75;100.00
30636;BME280;17400;52.392;9.750;2023-01-19T09:18:57;99541.38;;;2.75;100.00
30636;BME280;17400;52.392;9.750;2023-01-19T09:21:25;99539.00;;;2.80;100.00
30636;BME280;17400;52.392;9.750;2023-01-19T09:23:53;99544.94;;;2.91;100.00
30636;BME280;17400;52.392;9.750;2023-01-19T09:26:21;99553.84;;;2.83;100.00
30636;BME280;17400;52.392;9.750;2023-01-19T09:28:50;99554.44;;;2.70;100.00
30636;BME280;17400;52.392;9.750;2023-01-19T09:31:18;99561.03;;;2.43;100.00
30636;BME280;17400;52.392;9.750;2023-01-19T09:33:46;99567.22;;;2.43;100.00
30636;BME280;17400;52.392;9.750;2023-01-19T09:36:13;99566.38;;;2.43;100.00
30636;BME280;17400;52.392;9.750;2023-01-19T09:38:43;99568.88;;;2.44;100.00
30636;BME280;17400;52.392;9.750;2023-01-19T09:41:16;99559.19;;;2.52;100.00
30636;BME280;17400;52.392;9.750;2023-01-19T09:43:48;99557.47;;;2.59;100.00
30636;BME280;17400;52.392;9.750;2023-01-19T09:46:21;99566.84;;;2.55;100.00
30636;BME280;17400;52.392;9.750;2023-01-19T09:48:52;99565.66;;;2.57;100.00
30636;BME280;17400;52.392;9.750;2023-01-19T09:51:22;99570.69;;;2.52;100.00
30636;BME280;17400;52.392;9.750;2023-01-19T09:54:04;99568.91;;;2.36;100.00
30636;BME280;17400;52.392;9.750;2023-01-19T09:56:34;99575.25;;;2.35;100.00
30636;BME280;17400;52.392;9.750;2023-01-19T09:59:16;99586.09;;;2.42;100.00
30636;BME280;17400;52.392;9.750;2023-01-19T10:01:52;99589.94;;;2.39;100.00
30636;BME280;17400;52.392;9.750;2023-01-19T10:04:30;99577.59;;;2.38;100.00
30636;BME280;17400;52.392;9.750;2023-01-19T10:07:31;99594.97;;;2.26;100.00
30636;BME280;17400;52.392;9.750;2023-01-19T10:10:15;99586.28;;;2.32;100.00
30636;BME280;17400;52.392;9.750;2023-01-19T10:12:52;99585.16;;;2.26;100.00
30636;BME280;17400;52.392;9.750;2023-01-19T10:15:29;99591.34;;;2.19;100.00
30636;BME280;17400;52.392;9.750;2023-01-19T10:18:15;99596.69;;;2.19;100.00
30636;BME280;17400;52.392;9.750;2023-01-19T10:20:47;99592.34;;;2.17;100.00
30636;BME280;17400;52.392;9.750;2023-01-19T10:23:23;99592.31;;;2.26;100.00
30636;BME280;17400;52.392;9.750;2023-01-19T10:25:52;99598.78;;;2.40;100.00
30636;BME280;17400;52.392;9.750;2023-01-19T10:28:23;99598.94;;;2.46;100.00
30636;BME280;17400;52.392;9.750;2023-01-19T10:30:53;99595.78;;;2.43;100.00
30636;BME280;17400;52.392;9.750;2023-01-19T10:33:23;99599.09;;;2.53;100.00
30636;BME280;17400;52.392;9.750;2023-01-19T10:35:50;99598.91;;;2.55;100.00
30636;BME280;17400;52.392;9.750;2023-01-19T10:38:18;99595.91;;;2.49;100.00
30636;BME280;17400;52.392;9.750;2023-01-19T10:40:53;99593.91;;;2.52;100.00
30636;BME280;17400;52.392;9.750;2023-01-19T10:43:38;99595.88;;;2.58;100.00
30636;BME280;17400;52.392;9.750;2023-01-19T10:46:15;99593.22;;;2.58;100.00
30636;BME280;17400;52.392;9.750;2023-01-19T10:48:47;99596.00;;;2.64;100.00
30636;BME280;17400;52.392;9.750;2023-01-19T10:51:15;99594.84;;;2.75;100.00
30636;BME280;17400;52.392;9.750;2023-01-19T10:53:53;99597.78;;;2.80;100.00
30636;BME280;17400;52.392;9.750;2023-01-19T10:56:24;99592.31;;;2.74;100.00
30636;BME280;17400;52.392;9.750;2023-01-19T10:58:53;99610.56;;;2.70;100.00
30636;BME280;17400;52.392;9.750;2023-01-19T11:01:23;99608.19;;;2.67;100.00
30636;BME280;17400;52.392;9.750;2023-01-19T11:03:53;99608.19;;;2.67;100.00
30636;BME280;17400;52.392;9.750;2023-01-19T11:06:25;99606.38;;;2.67;100.00
30636;BME280;17400;52.392;9.750;2023-01-19T11:09:09;99611.19;;;2.72;100.00
30636;BME280;17400;52.392;9.750;2023-01-19T11:11:42;99616.22;;;2.75;100.00
30636;BME280;17400;52.392;9.750;2023-01-19T11:14:13;99604.84;;;2.73;100.00
30636;BME280;17400;52.392;9.750;2023-01-19T11:16:45;99601.31;;;2.81;100.00
30636;BME280;17400;52.392;9.750;2023-01-19T11:19:20;99599.81;;;2.78;100.00
30636;BME280;17400;52.392;9.750;2023-01-19T11:21:51;99611.69;;;2.76;100.00
30636;BME280;17400;52.392;9.750;2023-01-19T11:24:19;99606.84;;;2.79;100.00
30636;BME280;17400;52.392;9.750;2023-01-19T11:26:49;99608.97;;;2.84;100.00
30636;BME280;17400;52.392;9.750;2023-01-19T11:29:24;99603.63;;;2.84;100.00
30636;BME280;17400;52.392;9.750;2023-01-19T11:31:53;99603.59;;;2.92;100.00
30636;BME280;17400;52.392;9.750;2023-01-19T11:34:31;99609.72;;;3.01;100.00
30636;BME280;17400;52.392;9.750;2023-01-19T11:37:01;99606.38;;;2.99;100.00
30636;BME280;17400;52.392;9.750;2023-01-19T11:39:30;99606.88;;;3.03;100.00
30636;BME280;17400;52.392;9.750;2023-01-19T11:42:01;99609.06;;;2.99;100.00
30636;BME280;17400;52.392;9.750;2023-01-19T11:44:31;99607.75;;;2.95;100.00
30636;BME280;17400;52.392;9.750;2023-01-19T11:47:01;99603.38;;;3.02;100.00
30636;BME280;17400;52.392;9.750;2023-01-19T11:49:37;99605.38;;;3.08;100.00
30636;BME280;17400;52.392;9.750;2023-01-19T11:52:12;99607.63;;;3.20;100.00
30636;BME280;17400;52.392;9.750;2023-01-19T11:54:47;99613.97;;;3.19;100.00
30636;BME280;17400;52.392;9.750;2023-01-19T11:57:18;99612.97;;;3.20;100.00
30636;BME280;17400;52.392;9.750;2023-01-19T11:59:46;99617.00;;;3.15;100.00
30636;BME280;17400;52.392;9.750;2023-01-19T12:02:24;99618.72;;;3.08;100.00
30636;BME280;17400;52.392;9.750;2023-01-19T12:04:57;99627.94;;;3.06;100.00
30636;BME280;17400;52.392;9.750;2023-01-19T12:07:29;99623.06;;;3.09;100.00
30636;BME280;17400;52.392;9.750;2023-01-19T12:10:06;99621.22;;;3.10;100.00
30636;BME280;17400;52.392;9.750;2023-01-19T12:12:39;99622.34;;;3.15;100.00
30636;BME280;17400;52.392;9.750;2023-01-19T12:15:17;99622.88;;;3.11;100.00
30636;BME280;17400;52.392;9.750;2023-01-19T12:17:49;99627.53;;;3.17;100.00
30636;BME280;17400;52.392;9.750;2023-01-19T12:20:25;99629.38;;;3.16;100.00
30636;BME280;17400;52.392;9.750;2023-01-19T12:22:58;99634.41;;;3.11;100.00
30636;BME280;17400;52.392;9.750;2023-01-19T12:25:37;99633.75;;;3.09;100.00
30636;BME280;17400;52.392;9.750;2023-01-19T12:28:11;99634.78;;;3.08;100.00
30636;BME280;17400;52.392;9.750;2023-01-19T12:30:40;99641.81;;;3.01;100.00
30636;BME280;17400;52.392;9.750;2023-01-19T12:33:32;99639.16;;;3.01;100.00
30636;BME280;17400;52.392;9.750;2023-01-19T12:36:05;99642.81;;;3.00;100.00
30636;BME280;17400;52.392;9.750;2023-01-19T12:38:41;99652.00;;;2.97;100.00
30636;BME280;17400;52.392;9.750;2023-01-19T12:41:19;99652.88;;;2.98;100.00
30636;BME280;17400;52.392;9.750;2023-01-19T12:43:48;99653.38;;;2.93;100.00
30636;BME280;17400;52.392;9.750;2023-01-19T12:46:37;99659.91;;;2.91;100.00
30636;BME280;17400;52.392;9.750;2023-01-19T12:49:09;99655.91;;;2.87;100.00
30636;BME280;17400;52.392;9.750;2023-01-19T12:51:40;99652.38;;;2.94;100.00
30636;BME280;17400;52.392;9.750;2023-01-19T12:54:18;99659.72;;;3.00;100.00
30636;BME280;17400;52.392;9.750;2023-01-19T12:56:47;99673.91;;;3.01;100.00
30636;BME280;17400;52.392;9.750;2023-01-19T12:59:22;99667.00;;;3.07;100.00
30636;BME280;17400;52.392;9.750;2023-01-19T13:05:11;99670.81;;;3.21;100.00
30636;BME280;17400;52.392;9.750;2023-01-19T13:11:14;99671.94;;;3.26;100.00
30636;BME280;17400;52.392;9.750;2023-01-19T13:13:43;99674.94;;;3.31;100.00
30636;BME280;17400;52.392;9.750;2023-01-19T13:16:51;99671.06;;;3.34;100.00
30636;BME280;17400;52.392;9.750;2023-01-19T13:19:31;99676.28;;;3.27;100.00
30636;BME280;17400;52.392;9.750;2023-01-19T13:25:32;99685.53;;;3.16;100.00
30636;BME280;17400;52.392;9.750;2023-01-19T13:28:06;99684.69;;;3.16;100.00
30636;BME280;17400;52.392;9.750;2023-01-19T13:30:38;99685.53;;;3.16;100.00